CheckWX is a tool to help pilots better visualize weather data.  It is not intended as a substitute for an official pre-flight weather briefing.

12:01:26 UTC

KSLE METAR
McNary Field Airport
Salem, Oregon, USA
Current

1 hour ago

KSLE 241056Z AUTO 15004KT 10SM OVC060 03/02 A3060 RMK AO2 SLP362 T00330017
Observed
Feb-24 @ 10:56 UTC
Wind
  • 150° at 4 KTS
Visibility
10 SM
Flight Rules
VFR
Cloud Levels
  • Overcast at 6,000' AGL
Temperature
C / 37°F
Dewpoint
C / 36°F
Humidity
93%
Altimeter
30.6" Hg
Pressure
1036.22 hPa
Previous

2 hours ago

KSLE 240956Z AUTO 15004KT 10SM BKN060 03/02 A3058 RMK AO2 SLP357 T00330017
Observed
Feb-24 @ 09:56 UTC
Wind
  • 150° at 4 KTS
Visibility
10 SM
Flight Rules
VFR
Cloud Levels
  • Broken at 6,000' AGL
Temperature
C / 37°F
Dewpoint
C / 36°F
Humidity
93%
Altimeter
30.58" Hg
Pressure
1035.52 hPa
Previous

3 hours ago

KSLE 240856Z AUTO 14004KT 10SM OVC060 03/02 A3057 RMK AO2 SLP353 T00330017 51015
Observed
Feb-24 @ 08:56 UTC
Wind
  • 140° at 4 KTS
Visibility
10 SM
Flight Rules
VFR
Cloud Levels
  • Overcast at 6,000' AGL
Temperature
C / 37°F
Dewpoint
C / 36°F
Humidity
93%
Altimeter
30.57" Hg
Pressure
1035.22 hPa